Time;durP1;ratioP1;P1;durP2;ratioP2;P2;SDS_P1;SDS_P2;PMS_P1;PMS_P2;Temp;Humidity;BMP_temperature;BMP_pressure;BME280_temperature;BME280_humidity;BME280_pressure;Samples;Min_cycle;Max_cycle;Signal;HPM_P1;HPM_P2
2022/04/08 00:02:27;;;;;;;4.13;1.50;;;;;;;;;;6323961;28;20996;-63
2022/04/08 00:05:27;;;;;;;3.40;1.60;;;;;;;;;;6330311;28;20384;-64
2022/04/08 00:08:28;;;;;;;8.88;3.38;;;;;;;;;;6316398;28;20040;-64
2022/04/08 00:11:28;;;;;;;6.95;2.72;;;;;;;;;;6326456;28;20052;-64
2022/04/08 00:14:30;;;;;;;3.30;1.35;;;;;;;;;;6331081;28;20132;-63
2022/04/08 00:17:30;;;;;;;11.80;3.88;;;;;;;;;;6332461;28;20747;-63
2022/04/08 00:20:32;;;;;;;5.03;2.00;;;;;;;;;;6331188;28;20694;-63
2022/04/08 00:23:32;;;;;;;9.53;3.43;;;;;;;;;;6324867;28;20502;-62
2022/04/08 00:26:33;;;;;;;8.15;2.58;;;;;;;;;;6327753;28;20048;-63
2022/04/08 00:29:34;;;;;;;8.50;2.97;;;;;;;;;;6330840;28;20591;-64
2022/04/08 00:32:34;;;;;;;3.90;1.40;;;;;;;;;;6331854;28;20043;-63
2022/04/08 00:35:35;;;;;;;8.98;3.33;;;;;;;;;;6330135;28;20142;-64
2022/04/08 00:38:36;;;;;;;6.97;2.72;;;;;;;;;;6332075;27;20043;-64
2022/04/08 00:41:37;;;;;;;4.15;2.08;;;;;;;;;;6333207;28;20093;-63
2022/04/08 00:44:37;;;;;;;4.97;1.23;;;;;;;;;;6328011;28;20101;-64
2022/04/08 00:47:41;;;;;;;1.90;0.90;;;;;;;;;;6331845;28;20075;-64
2022/04/08 00:50:44;;;;;;;2.70;1.10;;;;;;;;;;6328278;28;20067;-62
2022/04/08 00:53:45;;;;;;;5.13;1.42;;;;;;;;;;6321524;28;22279;-67
2022/04/08 00:56:46;;;;;;;2.47;1.00;;;;;;;;;;6328825;28;20131;-63
2022/04/08 00:59:48;;;;;;;3.08;1.17;;;;;;;;;;6326222;28;20051;-64
2022/04/08 01:02:48;;;;;;;3.67;1.58;;;;;;;;;;6327367;28;20039;-63
2022/04/08 01:05:49;;;;;;;3.08;1.20;;;;;;;;;;6337912;28;20050;-62
2022/04/08 01:08:51;;;;;;;5.18;1.80;;;;;;;;;;6335473;28;20051;-62
2022/04/08 01:11:52;;;;;;;4.35;1.75;;;;;;;;;;6326895;28;20249;-63
2022/04/08 01:14:59;;;;;;;3.55;1.50;;;;;;;;;;6329450;28;20059;-62
2022/04/08 01:18:00;;;;;;;5.55;1.55;;;;;;;;;;6335444;28;20069;-62
2022/04/08 01:21:07;;;;;;;4.47;1.50;;;;;;;;;;6331737;28;20076;-63
2022/04/08 01:24:13;;;;;;;4.15;1.75;;;;;;;;;;6322816;28;20079;-63
2022/04/08 01:27:18;;;;;;;3.70;1.65;;;;;;;;;;6335894;28;20044;-64
2022/04/08 01:30:19;;;;;;;4.13;1.42;;;;;;;;;;6334209;28;20051;-64
2022/04/08 01:33:20;;;;;;;3.10;1.27;;;;;;;;;;6322953;28;20072;-64
2022/04/08 01:36:20;;;;;;;3.13;1.30;;;;;;;;;;6331111;28;20905;-64
2022/04/08 01:39:21;;;;;;;3.90;1.25;;;;;;;;;;6331497;28;20094;-64
2022/04/08 01:42:27;;;;;;;4.18;1.40;;;;;;;;;;6337102;28;20139;-63
2022/04/08 01:45:28;;;;;;;3.42;1.38;;;;;;;;;;6330528;28;20048;-65
2022/04/08 01:48:29;;;;;;;8.43;1.42;;;;;;;;;;6328688;28;20138;-63
2022/04/08 01:51:29;;;;;;;3.22;1.10;;;;;;;;;;6334327;28;20474;-62
2022/04/08 01:54:30;;;;;;;3.58;1.08;;;;;;;;;;6331686;28;20054;-62
2022/04/08 01:57:30;;;;;;;5.88;1.20;;;;;;;;;;6329529;28;20487;-61
2022/04/08 02:00:31;;;;;;;2.78;1.10;;;;;;;;;;6330192;28;20899;-62
2022/04/08 02:03:33;;;;;;;2.83;1.10;;;;;;;;;;6322531;28;20044;-62
2022/04/08 02:06:35;;;;;;;4.27;1.10;;;;;;;;;;6335502;28;20437;-63
2022/04/08 02:09:35;;;;;;;;;;;;;;;;;;6335830;28;20120;-63
2022/04/08 02:12:36;;;;;;;4.18;1.25;;;;;;;;;;6331803;28;19924;-61
2022/04/08 02:15:37;;;;;;;4.85;1.20;;;;;;;;;;6328008;28;20051;-63
2022/04/08 02:18:37;;;;;;;3.97;1.40;;;;;;;;;;6333181;28;20476;-63
2022/04/08 02:21:38;;;;;;;7.80;3.15;;;;;;;;;;6331793;28;20067;-62
2022/04/08 02:24:39;;;;;;;6.38;1.40;;;;;;;;;;6326564;28;20565;-62
2022/04/08 02:27:39;;;;;;;7.20;2.38;;;;;;;;;;6341564;28;20050;-61
2022/04/08 02:30:40;;;;;;;4.10;1.50;;;;;;;;;;6333022;28;20139;-62
2022/04/08 02:33:41;;;;;;;7.30;1.60;;;;;;;;;;6329731;28;20418;-63
2022/04/08 02:36:42;;;;;;;10.57;4.15;;;;;;;;;;6331375;28;20143;-62
2022/04/08 02:39:42;;;;;;;5.65;2.35;;;;;;;;;;6337930;28;20048;-62
2022/04/08 02:42:43;;;;;;;6.00;2.63;;;;;;;;;;6332516;28;20146;-64
2022/04/08 02:45:43;;;;;;;4.40;1.70;;;;;;;;;;6332675;28;20055;-63
2022/04/08 02:48:44;;;;;;;6.18;1.60;;;;;;;;;;6338292;28;20139;-61
2022/04/08 02:51:45;;;;;;;5.53;1.80;;;;;;;;;;6332221;28;20407;-62
2022/04/08 02:54:45;;;;;;;8.40;3.17;;;;;;;;;;6331882;28;20458;-62
2022/04/08 02:57:47;;;;;;;8.48;2.15;;;;;;;;;;6336829;28;20127;-62
2022/04/08 03:00:48;;;;;;;5.85;1.98;;;;;;;;;;6328540;28;20116;-61
2022/04/08 03:03:49;;;;;;;6.23;1.83;;;;;;;;;;6340096;28;20075;-62
2022/04/08 03:06:50;;;;;;;8.20;1.90;;;;;;;;;;6341683;28;20101;-63
2022/04/08 03:09:51;;;;;;;9.30;2.72;;;;;;;;;;6331922;28;20101;-62
2022/04/08 03:12:51;;;;;;;11.43;3.08;;;;;;;;;;6330126;28;20570;-61
2022/04/08 03:15:52;;;;;;;9.27;3.65;;;;;;;;;;6337522;28;20249;-61
2022/04/08 03:18:53;;;;;;;12.07;3.25;;;;;;;;;;6336431;28;20128;-62
2022/04/08 03:21:54;;;;;;;9.77;2.20;;;;;;;;;;6323064;27;20075;-62
2022/04/08 03:24:54;;;;;;;6.75;1.98;;;;;;;;;;6330608;28;20127;-61
2022/04/08 03:27:55;;;;;;;5.78;1.60;;;;;;;;;;6337091;28;20536;-64
2022/04/08 03:30:56;;;;;;;7.65;2.58;;;;;;;;;;6329210;28;20043;-62
2022/04/08 03:33:56;;;;;;;9.20;1.60;;;;;;;;;;6328388;28;20047;-63
2022/04/08 03:36:57;;;;;;;5.80;1.80;;;;;;;;;;6336106;28;20051;-62
2022/04/08 03:39:58;;;;;;;6.50;2.00;;;;;;;;;;6328913;28;20051;-62
2022/04/08 03:42:58;;;;;;;6.50;1.40;;;;;;;;;;6309266;28;20554;-61
2022/04/08 03:45:59;;;;;;;4.78;1.30;;;;;;;;;;6333789;28;20402;-61
2022/04/08 03:49:00;;;;;;;6.80;1.40;;;;;;;;;;6341031;27;20052;-62
2022/04/08 03:52:04;;;;;;;6.85;1.73;;;;;;;;;;6327948;28;20043;-61
2022/04/08 03:55:05;;;;;;;5.25;1.42;;;;;;;;;;6328571;28;20130;-61
2022/04/08 03:58:08;;;;;;;8.27;1.70;;;;;;;;;;6334110;27;20112;-61
2022/04/08 04:01:08;;;;;;;9.82;1.70;;;;;;;;;;6334343;28;20130;-61
2022/04/08 04:04:09;;;;;;;5.57;1.42;;;;;;;;;;6329823;28;20139;-61
2022/04/08 04:07:09;;;;;;;7.78;1.60;;;;;;;;;;6333552;27;20075;-60
2022/04/08 04:10:11;;;;;;;5.72;1.60;;;;;;;;;;6333770;27;20052;-60
2022/04/08 04:13:12;;;;;;;6.95;2.00;;;;;;;;;;6328935;28;20512;-61
2022/04/08 04:16:13;;;;;;;6.72;1.48;;;;;;;;;;6334225;28;20215;-61
2022/04/08 04:19:13;;;;;;;8.15;1.65;;;;;;;;;;6334731;27;20039;-64
2022/04/08 04:22:14;;;;;;;9.27;2.15;;;;;;;;;;6323649;28;20098;-61
2022/04/08 04:25:15;;;;;;;4.38;1.50;;;;;;;;;;6337345;27;20485;-62
2022/04/08 04:28:16;;;;;;;6.82;1.38;;;;;;;;;;6342231;27;20047;-60
2022/04/08 04:31:16;;;;;;;6.47;2.00;;;;;;;;;;6337367;27;20454;-62
2022/04/08 04:34:17;;;;;;;7.55;2.10;;;;;;;;;;6322287;28;20447;-61
2022/04/08 04:37:17;;;;;;;8.20;2.70;;;;;;;;;;6336135;28;20048;-61
2022/04/08 04:40:18;;;;;;;5.38;1.50;;;;;;;;;;6339793;27;20043;-61
2022/04/08 04:43:19;;;;;;;11.32;2.40;;;;;;;;;;6336933;27;20122;-60
2022/04/08 04:46:19;;;;;;;6.25;1.88;;;;;;;;;;6342349;27;20054;-61
2022/04/08 04:49:21;;;;;;;5.13;1.90;;;;;;;;;;6335757;28;20050;-61
2022/04/08 04:52:22;;;;;;;8.07;2.03;;;;;;;;;;6324398;28;20040;-61
2022/04/08 04:55:22;;;;;;;8.98;1.88;;;;;;;;;;6323544;28;20837;-61
2022/04/08 04:58:23;;;;;;;7.28;2.25;;;;;;;;;;6326880;28;20048;-61
2022/04/08 05:01:23;;;;;;;4.68;1.55;;;;;;;;;;6333027;28;20130;-62
2022/04/08 05:04:24;;;;;;;6.03;1.83;;;;;;;;;;6336883;28;20055;-61
2022/04/08 05:07:25;;;;;;;7.15;1.63;;;;;;;;;;6316417;28;20044;-61
2022/04/08 05:10:26;;;;;;;5.55;1.90;;;;;;;;;;6325859;28;20046;-64
2022/04/08 05:13:26;;;;;;;5.25;2.03;;;;;;;;;;6339468;28;20486;-61
2022/04/08 05:16:28;;;;;;;6.32;1.85;;;;;;;;;;6342446;28;20062;-60
2022/04/08 05:19:28;;;;;;;9.50;1.80;;;;;;;;;;6340819;28;20063;-63
2022/04/08 05:22:29;;;;;;;5.20;1.90;;;;;;;;;;6342069;28;20061;-63
2022/04/08 05:25:30;;;;;;;6.50;1.80;;;;;;;;;;6331806;28;20122;-62
2022/04/08 05:28:30;;;;;;;6.65;2.20;;;;;;;;;;6342548;28;20058;-63
2022/04/08 05:31:31;;;;;;;6.88;1.88;;;;;;;;;;6327256;28;20126;-62
2022/04/08 05:34:32;;;;;;;7.50;1.77;;;;;;;;;;6340219;28;20090;-67
2022/04/08 05:37:42;;;;;;;6.75;2.28;;;;;;;;;;6334107;28;20048;-62
2022/04/08 05:40:43;;;;;;;7.72;1.83;;;;;;;;;;6334065;27;20526;-64
2022/04/08 05:43:44;;;;;;;6.65;1.73;;;;;;;;;;6340626;28;20047;-61
2022/04/08 05:46:45;;;;;;;7.22;1.92;;;;;;;;;;6342301;28;20546;-61
2022/04/08 05:49:45;;;;;;;5.30;1.73;;;;;;;;;;6338930;28;20146;-62
2022/04/08 05:52:51;;;;;;;8.75;1.95;;;;;;;;;;6345323;28;20040;-64
2022/04/08 05:55:55;;;;;;;12.25;2.08;;;;;;;;;;6334716;28;20056;-61
2022/04/08 05:58:57;;;;;;;8.98;2.35;;;;;;;;;;6345312;28;20120;-63
2022/04/08 06:01:58;;;;;;;6.00;1.90;;;;;;;;;;6344288;28;20071;-61
2022/04/08 06:04:58;;;;;;;6.45;1.80;;;;;;;;;;6331457;28;20051;-62
2022/04/08 06:07:59;;;;;;;6.18;2.10;;;;;;;;;;6343524;28;20100;-63
2022/04/08 06:11:00;;;;;;;10.00;2.05;;;;;;;;;;6342084;28;20093;-66
2022/04/08 06:14:01;;;;;;;8.85;2.17;;;;;;;;;;6324941;28;20048;-62
2022/04/08 06:17:01;;;;;;;7.07;2.38;;;;;;;;;;6336066;28;20107;-62
2022/04/08 06:20:03;;;;;;;11.85;2.08;;;;;;;;;;6340863;28;20574;-65
2022/04/08 06:23:04;;;;;;;9.25;3.40;;;;;;;;;;6345369;28;20062;-65
2022/04/08 06:26:04;;;;;;;10.18;3.97;;;;;;;;;;6336824;28;20088;-65
2022/04/08 06:29:05;;;;;;;7.38;1.85;;;;;;;;;;6346489;28;20135;-65
2022/04/08 06:32:06;;;;;;;4.75;1.55;;;;;;;;;;6335574;28;20221;-64
2022/04/08 06:35:07;;;;;;;9.68;2.30;;;;;;;;;;6344736;28;20089;-63
2022/04/08 06:38:08;;;;;;;6.90;2.30;;;;;;;;;;6338662;28;20043;-62
2022/04/08 06:41:10;;;;;;;9.75;1.85;;;;;;;;;;6335455;28;20478;-66
2022/04/08 06:44:11;;;;;;;8.63;1.93;;;;;;;;;;6336608;28;20044;-63
2022/04/08 06:47:11;;;;;;;11.45;2.20;;;;;;;;;;6342383;28;20300;-62
2022/04/08 06:50:12;;;;;;;7.05;2.17;;;;;;;;;;6328952;28;20063;-61
2022/04/08 06:53:13;;;;;;;7.43;1.60;;;;;;;;;;6338167;28;20496;-61
2022/04/08 06:56:13;;;;;;;11.13;2.88;;;;;;;;;;6340573;28;20148;-61
2022/04/08 06:59:14;;;;;;;6.22;2.17;;;;;;;;;;6339360;28;20051;-60
2022/04/08 07:02:14;;;;;;;5.25;2.10;;;;;;;;;;6320706;28;20565;-61
2022/04/08 07:05:15;;;;;;;10.40;2.63;;;;;;;;;;6343524;28;20406;-62
2022/04/08 07:08:16;;;;;;;5.82;1.60;;;;;;;;;;6342150;28;20126;-61
2022/04/08 07:11:17;;;;;;;9.65;2.22;;;;;;;;;;6342422;28;20496;-61
2022/04/08 07:14:17;;;;;;;6.68;1.70;;;;;;;;;;6342452;28;20048;-61
2022/04/08 07:17:35;;;;;;;8.40;2.05;;;;;;;;;;6336691;28;20052;-61
2022/04/08 07:20:36;;;;;;;9.15;2.13;;;;;;;;;;6340596;28;20124;-60
2022/04/08 07:23:36;;;;;;;5.28;1.75;;;;;;;;;;6340278;28;20130;-60
2022/04/08 07:26:37;;;;;;;11.38;1.95;;;;;;;;;;6342175;28;20447;-61
2022/04/08 07:29:37;;;;;;;6.70;2.30;;;;;;;;;;6335412;28;20036;-64
2022/04/08 07:32:38;;;;;;;5.50;1.95;;;;;;;;;;6337987;28;20069;-61
2022/04/08 07:35:39;;;;;;;6.75;2.10;;;;;;;;;;6342622;28;20175;-63
2022/04/08 07:38:39;;;;;;;4.68;1.80;;;;;;;;;;6328369;28;20127;-61
2022/04/08 07:41:40;;;;;;;7.38;1.80;;;;;;;;;;6338917;28;20043;-62
2022/04/08 07:44:40;;;;;;;5.72;1.73;;;;;;;;;;6333081;28;20054;-62
2022/04/08 07:47:41;;;;;;;7.88;2.35;;;;;;;;;;6340576;28;20043;-61
2022/04/08 07:50:42;;;;;;;7.15;1.98;;;;;;;;;;6339790;28;20143;-61
2022/04/08 07:53:43;;;;;;;7.35;2.00;;;;;;;;;;6330459;28;20044;-63
2022/04/08 07:56:43;;;;;;;7.18;2.05;;;;;;;;;;6339715;28;20116;-62
2022/04/08 07:59:44;;;;;;;10.50;3.47;;;;;;;;;;6342338;28;20039;-63
2022/04/08 08:02:45;;;;;;;6.32;1.98;;;;;;;;;;6341528;28;20089;-61
2022/04/08 08:05:46;;;;;;;6.70;2.00;;;;;;;;;;6341941;28;20603;-61
2022/04/08 08:08:46;;;;;;;7.50;2.13;;;;;;;;;;6333606;28;20040;-60
2022/04/08 08:11:47;;;;;;;9.63;2.15;;;;;;;;;;6335894;28;20044;-62
2022/04/08 08:14:48;;;;;;;8.27;1.95;;;;;;;;;;6334743;28;20546;-63
2022/04/08 08:17:49;;;;;;;10.55;1.92;;;;;;;;;;6336758;28;20911;-62
2022/04/08 08:20:50;;;;;;;8.95;1.83;;;;;;;;;;6327818;28;20039;-61
2022/04/08 08:23:51;;;;;;;4.82;1.42;;;;;;;;;;6335786;28;20055;-63
2022/04/08 08:26:52;;;;;;;5.30;1.70;;;;;;;;;;6337109;28;20138;-63
2022/04/08 08:29:53;;;;;;;5.00;1.80;;;;;;;;;;6335442;28;20142;-62
2022/04/08 08:32:53;;;;;;;12.30;2.45;;;;;;;;;;6334827;28;20047;-61
2022/04/08 08:35:54;;;;;;;8.60;2.65;;;;;;;;;;6336623;28;20062;-62
2022/04/08 08:38:54;;;;;;;5.15;1.75;;;;;;;;;;6333618;28;20048;-62
2022/04/08 08:41:55;;;;;;;11.68;4.13;;;;;;;;;;6335740;28;20468;-63
2022/04/08 08:44:56;;;;;;;7.22;2.60;;;;;;;;;;6336233;28;20047;-62
2022/04/08 08:48:01;;;;;;;7.85;2.72;;;;;;;;;;6334191;28;20960;-61
2022/04/08 08:51:03;;;;;;;8.75;1.95;;;;;;;;;;6338681;28;20513;-61
2022/04/08 08:54:04;;;;;;;6.45;1.90;;;;;;;;;;6338545;28;20077;-62
2022/04/08 08:57:05;;;;;;;7.78;1.88;;;;;;;;;;6333360;28;20067;-61
2022/04/08 09:00:15;;;;;;;7.93;1.88;;;;;;;;;;6328576;28;20044;-62
2022/04/08 09:03:16;;;;;;;7.85;1.98;;;;;;;;;;6332953;28;20156;-62
2022/04/08 09:06:17;;;;;;;8.50;2.08;;;;;;;;;;6336346;28;20072;-64
2022/04/08 09:09:28;;;;;;;7.97;2.15;;;;;;;;;;6338347;28;20070;-63
2022/04/08 09:12:29;;;;;;;6.85;1.50;;;;;;;;;;6338562;28;20044;-62
2022/04/08 09:15:31;;;;;;;6.75;1.60;;;;;;;;;;6337730;28;20123;-61
2022/04/08 09:18:36;;;;;;;8.52;2.50;;;;;;;;;;6340349;28;20047;-61
2022/04/08 09:21:37;;;;;;;6.55;1.80;;;;;;;;;;6338671;28;20071;-61
2022/04/08 09:24:37;;;;;;;5.13;1.90;;;;;;;;;;6330400;28;20126;-61
2022/04/08 09:27:40;;;;;;;5.22;1.95;;;;;;;;;;6335073;28;20438;-63
2022/04/08 09:30:41;;;;;;;3.65;1.63;;;;;;;;;;6339069;28;20113;-64
2022/04/08 09:33:55;;;;;;;4.75;2.00;;;;;;;;;;6337297;28;20504;-63
2022/04/08 09:36:57;;;;;;;5.28;2.28;;;;;;;;;;6336519;28;20051;-62
2022/04/08 09:40:00;;;;;;;5.38;2.38;;;;;;;;;;6329648;28;20039;-64
2022/04/08 09:43:02;;;;;;;5.72;1.77;;;;;;;;;;6337748;28;20380;-63
2022/04/08 09:46:32;;;;;;;6.73;2.30;;;;;;;;;;6338245;28;20058;-63
2022/04/08 09:49:32;;;;;;;8.10;2.30;;;;;;;;;;6319266;28;20079;-62
2022/04/08 09:52:33;;;;;;;4.20;1.55;;;;;;;;;;6331413;28;20100;-64
2022/04/08 09:55:35;;;;;;;6.82;1.55;;;;;;;;;;6335099;28;20052;-61
2022/04/08 09:58:37;;;;;;;4.93;1.70;;;;;;;;;;6339012;28;20097;-64
2022/04/08 10:01:38;;;;;;;5.50;2.00;;;;;;;;;;6333548;28;20044;-63
2022/04/08 10:04:40;;;;;;;9.00;2.93;;;;;;;;;;6329926;28;20055;-62
2022/04/08 10:07:43;;;;;;;6.20;2.40;;;;;;;;;;6337184;28;20384;-65
2022/04/08 10:10:51;;;;;;;7.30;2.47;;;;;;;;;;6330123;28;20044;-63
2022/04/08 10:14:04;;;;;;;5.93;2.45;;;;;;;;;;6338518;28;20052;-62
2022/04/08 10:17:05;;;;;;;15.02;4.00;;;;;;;;;;6333195;28;20070;-64
2022/04/08 10:20:21;;;;;;;5.25;2.10;;;;;;;;;;6334660;28;20051;-62
2022/04/08 10:23:22;;;;;;;6.70;2.33;;;;;;;;;;6338147;28;20048;-63
2022/04/08 10:26:25;;;;;;;6.00;2.13;;;;;;;;;;6336092;28;20062;-61
2022/04/08 10:29:26;;;;;;;13.27;2.67;;;;;;;;;;6344346;28;20048;-63
2022/04/08 10:32:40;;;;;;;8.88;2.92;;;;;;;;;;6343636;28;20058;-64
2022/04/08 10:35:55;;;;;;;7.68;2.55;;;;;;;;;;6345304;28;20619;-65
2022/04/08 10:39:18;;;;;;;4.00;2.35;;;;;;;;;;6342430;28;20059;-68
2022/04/08 10:42:22;;;;;;;;;;;;;;;;;;6328948;28;20446;-64
2022/04/08 10:45:23;;;;;;;5.57;2.38;;;;;;;;;;6335036;28;20010;-60
2022/04/08 10:48:33;;;;;;;5.80;2.17;;;;;;;;;;6334212;28;20547;-63
2022/04/08 10:51:43;;;;;;;5.20;2.33;;;;;;;;;;6335261;28;20067;-60
2022/04/08 10:54:44;;;;;;;8.73;2.17;;;;;;;;;;6331306;27;20093;-62
2022/04/08 10:57:45;;;;;;;8.52;2.45;;;;;;;;;;6341547;28;20035;-64
2022/04/08 11:00:49;;;;;;;4.90;1.98;;;;;;;;;;6335620;28;20551;-72
2022/04/08 11:04:00;;;;;;;6.55;1.60;;;;;;;;;;6336422;28;20475;-64
2022/04/08 11:07:05;;;;;;;7.15;1.88;;;;;;;;;;6340819;28;20047;-65
2022/04/08 11:10:09;;;;;;;7.82;1.83;;;;;;;;;;6336394;28;20083;-70
2022/04/08 11:13:12;;;;;;;10.95;2.42;;;;;;;;;;6336919;28;20074;-61
2022/04/08 11:16:16;;;;;;;4.03;1.50;;;;;;;;;;6340896;28;20126;-63
2022/04/08 11:19:20;;;;;;;5.07;1.83;;;;;;;;;;6329539;28;20456;-69
2022/04/08 11:22:21;;;;;;;8.80;2.90;;;;;;;;;;6332354;28;20099;-69
2022/04/08 11:25:29;;;;;;;7.13;2.15;;;;;;;;;;6340311;28;20048;-61
2022/04/08 11:28:30;;;;;;;7.13;2.22;;;;;;;;;;6338585;28;20044;-65
2022/04/08 11:31:30;;;;;;;6.00;2.50;;;;;;;;;;6334386;28;20621;-71
2022/04/08 11:34:31;;;;;;;5.18;2.20;;;;;;;;;;6338650;27;20071;-68
2022/04/08 11:37:31;;;;;;;4.47;1.90;;;;;;;;;;6333916;28;20515;-60
2022/04/08 11:40:33;;;;;;;9.30;2.40;;;;;;;;;;6336118;28;20135;-68
2022/04/08 11:43:34;;;;;;;6.87;2.03;;;;;;;;;;6334628;28;20047;-73
2022/04/08 11:46:35;;;;;;;5.53;1.60;;;;;;;;;;6337704;28;20799;-69
2022/04/08 11:49:36;;;;;;;5.30;1.80;;;;;;;;;;6340250;28;20314;-71
2022/04/08 11:52:37;;;;;;;4.70;1.70;;;;;;;;;;6336268;28;20580;-62
2022/04/08 11:55:37;;;;;;;5.47;1.98;;;;;;;;;;6320922;28;20462;-63
2022/04/08 11:58:38;;;;;;;4.70;1.60;;;;;;;;;;6337759;28;20043;-66
2022/04/08 12:01:41;;;;;;;5.88;1.98;;;;;;;;;;6337155;28;20108;-77
2022/04/08 12:04:41;;;;;;;5.57;1.83;;;;;;;;;;6340708;28;20047;-68
2022/04/08 12:07:44;;;;;;;6.45;2.30;;;;;;;;;;6338551;28;20113;-67
2022/04/08 12:10:51;;;;;;;8.15;1.95;;;;;;;;;;6330664;28;20168;-65
2022/04/08 12:13:56;;;;;;;6.63;1.80;;;;;;;;;;6335264;28;20481;-61
2022/04/08 12:17:02;;;;;;;6.47;1.75;;;;;;;;;;6339112;28;20074;-65
2022/04/08 12:20:02;;;;;;;3.80;2.08;;;;;;;;;;6338359;28;20048;-66
2022/04/08 12:23:03;;;;;;;5.25;1.83;;;;;;;;;;6330165;28;20079;-60
2022/04/08 12:26:05;;;;;;;5.65;1.90;;;;;;;;;;6340449;28;20069;-64
2022/04/08 12:29:28;;;;;;;6.18;2.03;;;;;;;;;;6327212;27;20048;-63
2022/04/08 12:32:39;;;;;;;4.15;1.50;;;;;;;;;;6330449;27;20069;-61
2022/04/08 12:35:40;;;;;;;8.52;2.20;;;;;;;;;;6339098;28;20512;-66
2022/04/08 12:38:42;;;;;;;6.65;3.88;;;;;;;;;;6342565;28;20048;-61
2022/04/08 12:41:45;;;;;;;4.15;1.92;;;;;;;;;;6338525;28;20082;-67
2022/04/08 12:44:45;;;;;;;6.25;2.00;;;;;;;;;;6335370;28;20051;-64
2022/04/08 12:47:46;;;;;;;8.40;2.20;;;;;;;;;;6338197;28;20405;-63
2022/04/08 12:50:47;;;;;;;3.80;1.83;;;;;;;;;;6340387;28;20629;-60
2022/04/08 12:53:47;;;;;;;6.72;1.95;;;;;;;;;;6336142;28;20065;-61
2022/04/08 12:56:48;;;;;;;4.85;1.42;;;;;;;;;;6335395;28;20117;-70
2022/04/08 12:59:48;;;;;;;8.35;1.83;;;;;;;;;;6340375;28;20052;-61
2022/04/08 13:02:49;;;;;;;5.80;1.70;;;;;;;;;;6341112;28;20142;-65
2022/04/08 13:05:50;;;;;;;7.18;2.55;;;;;;;;;;6339692;28;20039;-62
2022/04/08 13:08:50;;;;;;;4.63;1.70;;;;;;;;;;6339975;28;20043;-65
2022/04/08 13:11:51;;;;;;;5.68;1.77;;;;;;;;;;6339151;28;20051;-61
2022/04/08 13:14:52;;;;;;;7.07;1.80;;;;;;;;;;6336761;28;20051;-62
2022/04/08 13:17:53;;;;;;;9.63;2.33;;;;;;;;;;6339285;28;20515;-61
2022/04/08 13:20:53;;;;;;;5.57;1.55;;;;;;;;;;6335726;28;20345;-61
2022/04/08 13:23:54;;;;;;;6.55;2.05;;;;;;;;;;6328101;28;20043;-62
2022/04/08 13:26:54;;;;;;;6.22;1.50;;;;;;;;;;6320381;28;20043;-62
2022/04/08 13:29:55;;;;;;;5.10;1.70;;;;;;;;;;6336866;28;20414;-62
2022/04/08 13:32:56;;;;;;;3.95;1.30;;;;;;;;;;6332702;28;20043;-62
2022/04/08 13:35:57;;;;;;;5.88;1.45;;;;;;;;;;6328804;28;20214;-62
2022/04/08 13:38:58;;;;;;;9.85;3.50;;;;;;;;;;6331437;28;20039;-61
2022/04/08 13:41:59;;;;;;;8.35;1.98;;;;;;;;;;6337111;28;20071;-60
2022/04/08 13:44:59;;;;;;;6.03;1.63;;;;;;;;;;6335526;28;20585;-62
2022/04/08 13:48:00;;;;;;;8.05;1.85;;;;;;;;;;6338812;28;20052;-61
2022/04/08 13:51:00;;;;;;;7.57;2.55;;;;;;;;;;6340743;28;20148;-61
2022/04/08 13:54:01;;;;;;;7.18;2.05;;;;;;;;;;6332895;28;20051;-62
2022/04/08 13:57:02;;;;;;;6.10;2.03;;;;;;;;;;6314629;28;20135;-61
2022/04/08 14:00:04;;;;;;;5.72;1.63;;;;;;;;;;6334555;28;20058;-61
2022/04/08 14:03:22;;;;;;;5.43;1.98;;;;;;;;;;6345000;28;20043;-61
2022/04/08 14:06:22;;;;;;;7.57;2.63;;;;;;;;;;6345953;28;20046;-68
2022/04/08 14:09:23;;;;;;;10.50;3.00;;;;;;;;;;6340426;28;20047;-67
2022/04/08 14:12:26;;;;;;;4.95;1.70;;;;;;;;;;6342415;28;20043;-62
2022/04/08 14:15:26;;;;;;;5.90;1.60;;;;;;;;;;6335917;27;20055;-71
2022/04/08 14:18:27;;;;;;;6.28;1.60;;;;;;;;;;6338192;28;20073;-62
2022/04/08 14:21:29;;;;;;;5.30;1.58;;;;;;;;;;6339904;28;20048;-62
2022/04/08 14:24:29;;;;;;;6.45;2.30;;;;;;;;;;6328823;28;20043;-66
2022/04/08 14:27:30;;;;;;;6.63;1.65;;;;;;;;;;6337165;28;20070;-63
2022/04/08 14:30:31;;;;;;;7.35;1.95;;;;;;;;;;6336461;28;20047;-65
2022/04/08 14:33:31;;;;;;;7.55;1.92;;;;;;;;;;6345268;28;20143;-61
2022/04/08 14:36:32;;;;;;;7.35;2.25;;;;;;;;;;6341898;28;20047;-67
2022/04/08 14:39:33;;;;;;;4.75;1.52;;;;;;;;;;6340612;28;20085;-69
2022/04/08 14:42:35;;;;;;;5.30;1.60;;;;;;;;;;6332154;28;20080;-68
2022/04/08 14:45:36;;;;;;;8.85;1.67;;;;;;;;;;6335414;28;20716;-64
2022/04/08 14:48:37;;;;;;;5.38;2.17;;;;;;;;;;6316432;28;20048;-69
2022/04/08 14:51:38;;;;;;;17.80;9.75;;;;;;;;;;6329313;28;20050;-63
2022/04/08 14:54:39;;;;;;;8.13;2.70;;;;;;;;;;6331129;28;20155;-63
2022/04/08 14:57:39;;;;;;;7.45;2.50;;;;;;;;;;6332782;28;20051;-64
2022/04/08 15:00:40;;;;;;;5.38;2.70;;;;;;;;;;6332394;28;20047;-60
2022/04/08 15:03:44;;;;;;;5.35;2.40;;;;;;;;;;6332659;28;20047;-60
2022/04/08 15:06:45;;;;;;;9.05;2.72;;;;;;;;;;6330221;28;20056;-63
2022/04/08 15:09:47;;;;;;;8.75;2.08;;;;;;;;;;6333277;28;20834;-65
2022/04/08 15:12:47;;;;;;;11.75;3.17;;;;;;;;;;6328432;28;20142;-61
2022/04/08 15:15:48;;;;;;;5.80;2.33;;;;;;;;;;6328963;28;20059;-60
2022/04/08 15:18:49;;;;;;;15.68;2.38;;;;;;;;;;6331217;28;20051;-60
2022/04/08 15:21:49;;;;;;;5.22;1.90;;;;;;;;;;6330990;28;20092;-64
2022/04/08 15:24:50;;;;;;;13.02;2.70;;;;;;;;;;6330745;28;20043;-62
2022/04/08 15:27:50;;;;;;;16.85;6.15;;;;;;;;;;6332860;28;20080;-60
2022/04/08 15:30:51;;;;;;;9.15;2.47;;;;;;;;;;6330588;28;20059;-61
2022/04/08 15:33:57;;;;;;;15.20;8.07;;;;;;;;;;6331359;28;20052;-61
2022/04/08 15:36:57;;;;;;;13.38;6.80;;;;;;;;;;6331344;28;20052;-61
2022/04/08 15:40:00;;;;;;;23.20;7.88;;;;;;;;;;6330538;28;20166;-62
2022/04/08 15:43:01;;;;;;;5.53;2.00;;;;;;;;;;6328031;28;20198;-61
2022/04/08 15:46:01;;;;;;;6.53;2.20;;;;;;;;;;6328721;28;20043;-61
2022/04/08 15:49:03;;;;;;;5.57;2.17;;;;;;;;;;6330466;28;20452;-66
2022/04/08 15:52:06;;;;;;;9.30;2.47;;;;;;;;;;6329303;28;20056;-62
2022/04/08 15:55:09;;;;;;;8.75;2.30;;;;;;;;;;6330380;28;20299;-62
2022/04/08 15:58:09;;;;;;;6.05;2.72;;;;;;;;;;6330858;28;20146;-61
2022/04/08 16:01:12;;;;;;;8.27;2.42;;;;;;;;;;6328994;28;20113;-60
2022/04/08 16:04:13;;;;;;;;;;;;;;;;;;6330880;28;20055;-69
2022/04/08 16:07:14;;;;;;;6.05;2.30;;;;;;;;;;6330191;28;19974;-61
2022/04/08 16:10:15;;;;;;;5.15;1.65;;;;;;;;;;6333068;28;20546;-68
2022/04/08 16:13:16;;;;;;;9.18;2.50;;;;;;;;;;6331806;28;20121;-61
2022/04/08 16:16:18;;;;;;;7.53;1.90;;;;;;;;;;6329528;28;20139;-61
2022/04/08 16:19:19;;;;;;;6.82;2.13;;;;;;;;;;6330260;28;20101;-63
2022/04/08 16:22:19;;;;;;;8.55;2.20;;;;;;;;;;6330836;28;20134;-61
2022/04/08 16:25:20;;;;;;;6.38;2.63;;;;;;;;;;6329754;28;20475;-62
2022/04/08 16:28:21;;;;;;;8.05;2.75;;;;;;;;;;6312839;28;20043;-65
2022/04/08 16:31:21;;;;;;;7.63;2.30;;;;;;;;;;6330787;28;20395;-61
2022/04/08 16:34:22;;;;;;;10.10;4.05;;;;;;;;;;6330332;28;20058;-66
2022/04/08 16:37:23;;;;;;;6.60;3.28;;;;;;;;;;6325287;28;20048;-61
2022/04/08 16:40:24;;;;;;;18.35;9.35;;;;;;;;;;6328797;28;20047;-62
2022/04/08 16:43:24;;;;;;;18.50;10.73;;;;;;;;;;6326960;28;20048;-63
2022/04/08 16:46:25;;;;;;;9.18;4.97;;;;;;;;;;6326271;28;20093;-61
2022/04/08 16:49:26;;;;;;;7.93;2.47;;;;;;;;;;6330721;27;20510;-60
2022/04/08 16:52:27;;;;;;;10.35;3.88;;;;;;;;;;6330296;28;20050;-65
2022/04/08 16:55:30;;;;;;;6.50;2.35;;;;;;;;;;6330213;28;20537;-60
2022/04/08 16:58:31;;;;;;;12.57;4.57;;;;;;;;;;6328210;28;20482;-63
2022/04/08 17:01:32;;;;;;;7.95;2.92;;;;;;;;;;6329126;28;20173;-66
2022/04/08 17:04:33;;;;;;;8.65;2.45;;;;;;;;;;6329522;28;20598;-67
2022/04/08 17:07:33;;;;;;;10.05;3.03;;;;;;;;;;6330388;28;20048;-66
2022/04/08 17:10:34;;;;;;;5.53;2.17;;;;;;;;;;6329615;28;20165;-68
2022/04/08 17:13:35;;;;;;;6.95;2.33;;;;;;;;;;6331852;28;20059;-67
2022/04/08 17:16:35;;;;;;;5.63;2.50;;;;;;;;;;6326705;28;20508;-62
2022/04/08 17:19:37;;;;;;;6.82;3.38;;;;;;;;;;6330681;28;20055;-61
2022/04/08 17:22:38;;;;;;;6.47;2.70;;;;;;;;;;6328496;28;20564;-61
2022/04/08 17:25:39;;;;;;;9.05;2.67;;;;;;;;;;6327588;28;20047;-64
2022/04/08 17:28:39;;;;;;;7.63;3.80;;;;;;;;;;6328422;28;20054;-65
2022/04/08 17:31:40;;;;;;;8.10;3.17;;;;;;;;;;6327985;28;20098;-65
2022/04/08 17:34:41;;;;;;;9.07;3.15;;;;;;;;;;6327548;28;20143;-63
2022/04/08 17:37:42;;;;;;;10.90;4.20;;;;;;;;;;6327485;28;20182;-65
2022/04/08 17:40:42;;;;;;;17.73;7.20;;;;;;;;;;6327493;28;20047;-65
2022/04/08 17:43:47;;;;;;;78.03;24.50;;;;;;;;;;6330113;28;20138;-61
2022/04/08 17:46:47;;;;;;;104.22;32.13;;;;;;;;;;6328619;28;20101;-61
2022/04/08 17:49:48;;;;;;;68.85;23.08;;;;;;;;;;6332043;28;20490;-62
2022/04/08 17:52:49;;;;;;;61.15;27.65;;;;;;;;;;6330451;28;20048;-63
2022/04/08 17:55:50;;;;;;;32.20;19.17;;;;;;;;;;6328849;28;20489;-63
2022/04/08 17:58:51;;;;;;;35.38;16.65;;;;;;;;;;6331728;28;20047;-62
2022/04/08 18:01:52;;;;;;;30.90;17.42;;;;;;;;;;6330481;28;20138;-63
2022/04/08 18:04:53;;;;;;;25.33;14.18;;;;;;;;;;6330134;28;20044;-69
2022/04/08 18:07:54;;;;;;;23.02;13.23;;;;;;;;;;6329832;28;20414;-64